createdAt,value
2023-04-24T00:01:23.013Z,5.88
2023-04-24T00:04:28.562Z,5.84
2023-04-24T00:07:34.510Z,5.80
2023-04-24T00:10:40.747Z,5.77
2023-04-24T00:13:46.667Z,5.76
2023-04-24T00:16:53.726Z,5.75
2023-04-24T00:19:59.124Z,5.77
2023-04-24T00:23:05.923Z,5.81
2023-04-24T00:26:11.076Z,5.85
2023-04-24T00:29:17.052Z,5.92
2023-04-24T00:32:23.525Z,5.95
2023-04-24T00:35:29.434Z,5.98
2023-04-24T00:38:34.457Z,6.02
2023-04-24T00:41:40.817Z,6.08
2023-04-24T00:44:46.787Z,6.17
2023-04-24T00:47:53.426Z,6.27
2023-04-24T00:51:01.820Z,6.36
2023-04-24T00:54:08.209Z,6.42
2023-04-24T00:57:13.987Z,6.50
2023-04-24T01:00:23.148Z,6.58
2023-04-24T01:03:29.687Z,6.63
2023-04-24T01:06:36.128Z,6.67
2023-04-24T01:09:41.721Z,6.68
2023-04-24T01:12:48.678Z,6.71
2023-04-24T01:15:55.108Z,6.70
2023-04-24T01:19:00.881Z,6.69
2023-04-24T01:22:10.420Z,6.67
2023-04-24T01:25:16.527Z,6.64
2023-04-24T01:28:23.366Z,6.58
2023-04-24T01:31:29.867Z,6.52
2023-04-24T01:34:35.761Z,6.47
2023-04-24T01:37:40.973Z,6.41
2023-04-24T01:40:47.904Z,6.37
2023-04-24T01:43:53.754Z,6.30
2023-04-24T01:47:00.883Z,6.23
2023-04-24T01:50:08.448Z,6.17
2023-04-24T01:53:14.789Z,6.11
2023-04-24T01:56:20.736Z,6.00
2023-04-24T01:59:27.137Z,5.94
2023-04-24T02:02:35.596Z,5.91
2023-04-24T02:05:42.640Z,5.89
2023-04-24T02:08:53.932Z,5.84
2023-04-24T02:11:59.855Z,5.80
2023-04-24T02:15:07.305Z,5.78
2023-04-24T02:18:14.955Z,5.75
2023-04-24T02:21:20.944Z,5.71
2023-04-24T02:24:28.295Z,5.66
2023-04-24T02:27:34.168Z,5.66
2023-04-24T02:30:39.011Z,5.69
2023-04-24T02:33:44.680Z,5.69
2023-04-24T02:36:50.325Z,5.68
2023-04-24T02:39:56.166Z,5.69
2023-04-24T02:43:02.981Z,5.75
2023-04-24T02:46:10.145Z,5.82
2023-04-24T02:49:17.232Z,5.93
2023-04-24T02:52:22.415Z,6.02
2023-04-24T02:55:28.129Z,6.07
2023-04-24T02:58:34.263Z,6.15
2023-04-24T03:01:39.684Z,6.24
2023-04-24T03:04:47.506Z,6.35
2023-04-24T03:07:55.218Z,6.45
2023-04-24T03:11:01.233Z,6.53
2023-04-24T03:14:07.280Z,6.63
2023-04-24T03:17:13.604Z,6.73
2023-04-24T03:20:20.194Z,6.78
2023-04-24T03:23:27.134Z,6.84
2023-04-24T03:26:32.969Z,6.91
2023-04-24T03:29:49.556Z,6.95
2023-04-24T03:32:58.717Z,6.97
2023-04-24T03:36:06.845Z,7.04
2023-04-24T03:39:14.498Z,7.09
2023-04-24T03:42:26.132Z,7.13
2023-04-24T03:45:32.509Z,7.20
2023-04-24T03:48:41.320Z,7.29
2023-04-24T03:51:50.163Z,7.39
2023-04-24T03:54:58.801Z,7.53
2023-04-24T03:58:05.871Z,7.63
2023-04-24T04:01:11.742Z,7.72
2023-04-24T04:04:25.136Z,7.80
2023-04-24T04:07:32.780Z,7.89
2023-04-24T04:10:38.164Z,8.00
2023-04-24T04:13:45.436Z,8.12
2023-04-24T04:16:54.952Z,8.27
2023-04-24T04:20:01.675Z,8.39
2023-04-24T04:23:07.870Z,8.49
2023-04-24T04:26:15.911Z,8.57
2023-04-24T04:29:30.239Z,8.69
2023-04-24T04:32:36.716Z,8.85
2023-04-24T04:35:42.760Z,8.98
2023-04-24T04:38:50.409Z,9.10
2023-04-24T04:42:00.679Z,9.12
2023-04-24T04:45:07.932Z,9.19
2023-04-24T04:48:16.528Z,9.29
2023-04-24T04:51:22.325Z,9.33
2023-04-24T04:54:28.768Z,9.43
2023-04-24T04:57:35.412Z,9.55
2023-04-24T05:00:44.775Z,9.68
2023-04-24T05:03:52.814Z,9.77
2023-04-24T05:06:59.833Z,9.88
2023-04-24T05:10:05.928Z,10.04
2023-04-24T05:13:13.997Z,10.15
2023-04-24T05:16:18.614Z,10.30
2023-04-24T05:19:26.312Z,10.45
2023-04-24T05:22:31.750Z,10.62
2023-04-24T05:25:39.754Z,10.78
2023-04-24T05:28:46.808Z,10.92
2023-04-24T05:31:53.980Z,11.09
2023-04-24T05:35:01.293Z,11.26
2023-04-24T05:38:09.462Z,11.38
2023-04-24T05:41:16.281Z,11.55
2023-04-24T05:44:21.671Z,11.72
2023-04-24T05:47:27.092Z,11.89
2023-04-24T05:50:32.505Z,12.06
2023-04-24T05:53:42.038Z,12.21
2023-04-24T05:56:47.922Z,12.40
2023-04-24T05:59:55.457Z,12.59
2023-04-24T06:03:03.574Z,12.79
2023-04-24T06:06:10.038Z,12.97
2023-04-24T06:09:16.810Z,13.15
2023-04-24T06:12:23.393Z,13.28
2023-04-24T06:15:31.375Z,13.35
2023-04-24T06:18:40.669Z,13.44
2023-04-24T06:21:48.487Z,13.50
2023-04-24T06:24:56.499Z,13.58
2023-04-24T06:28:03.261Z,13.70
2023-04-24T06:31:12.012Z,13.81
2023-04-24T06:34:17.943Z,13.95
2023-04-24T06:37:23.597Z,14.07
2023-04-24T06:40:29.577Z,14.18
2023-04-24T06:43:35.450Z,14.29
2023-04-24T06:46:42.040Z,14.43
2023-04-24T06:49:49.474Z,14.60
2023-04-24T06:52:57.299Z,14.72
2023-04-24T06:56:04.405Z,14.85
2023-04-24T06:59:10.959Z,15.05
2023-04-24T07:02:18.005Z,15.23
2023-04-24T07:05:27.316Z,15.42
2023-04-24T07:08:33.693Z,15.55
2023-04-24T07:11:41.974Z,15.76
2023-04-24T07:14:48.487Z,15.95
2023-04-24T07:17:54.192Z,16.23
2023-04-24T07:21:00.781Z,16.50
2023-04-24T07:24:13.163Z,16.74
2023-04-24T07:27:23.108Z,16.95
2023-04-24T07:30:31.724Z,17.16
2023-04-24T07:33:37.726Z,17.33
2023-04-24T07:36:42.910Z,17.40
2023-04-24T07:39:50.112Z,17.51
2023-04-24T07:42:59.197Z,17.63
2023-04-24T07:46:09.399Z,17.71
2023-04-24T07:49:17.055Z,17.73
2023-04-24T07:52:23.296Z,17.76
2023-04-24T07:55:28.560Z,17.76
2023-04-24T07:58:34.368Z,17.81
2023-04-24T08:01:39.400Z,17.78
2023-04-24T08:04:46.051Z,17.78
2023-04-24T08:07:54.918Z,17.80
2023-04-24T08:11:01.150Z,17.85
2023-04-24T08:14:06.994Z,17.92
2023-04-24T08:17:13.492Z,17.95
2023-04-24T08:20:23.278Z,17.96
2023-04-24T08:23:30.204Z,17.99
2023-04-24T08:26:36.928Z,17.99
2023-04-24T08:29:43.681Z,17.99
2023-04-24T08:32:49.091Z,18.01
2023-04-24T08:35:49.487Z,18.04
2023-04-24T08:38:55.891Z,18.14
2023-04-24T08:42:00.985Z,18.27
2023-04-24T08:45:06.688Z,18.34
2023-04-24T08:48:23.322Z,18.45
2023-04-24T08:51:25.788Z,18.54
2023-04-24T08:54:35.043Z,18.62
2023-04-24T08:57:43.673Z,18.71
2023-04-24T09:00:52.669Z,18.80
2023-04-24T09:03:59.012Z,18.99
2023-04-24T09:07:06.758Z,19.22
2023-04-24T09:10:12.626Z,19.44
2023-04-24T09:13:18.586Z,19.70
2023-04-24T09:16:26.602Z,19.90
2023-04-24T09:19:33.626Z,20.00
2023-04-24T09:22:40.440Z,20.10
2023-04-24T09:25:49.654Z,20.35
2023-04-24T09:28:57.274Z,20.51
2023-04-24T09:32:03.120Z,20.54
2023-04-24T09:35:31.304Z,20.49
2023-04-24T09:38:53.853Z,20.45
2023-04-24T09:42:11.111Z,20.41
2023-04-24T09:45:51.829Z,20.45
2023-04-24T09:48:59.667Z,20.46
2023-04-24T09:52:06.774Z,20.39
2023-04-24T09:55:14.088Z,20.35
2023-04-24T09:58:20.286Z,20.38
2023-04-24T10:01:26.997Z,20.42
2023-04-24T10:04:38.183Z,20.49
2023-04-24T10:07:44.095Z,20.59
2023-04-24T10:10:55.938Z,20.62
2023-04-24T10:14:01.774Z,20.63
2023-04-24T10:17:09.758Z,20.61
2023-04-24T10:20:16.747Z,20.57
2023-04-24T10:23:26.825Z,20.66
2023-04-24T10:26:34.444Z,20.92
2023-04-24T10:29:42.917Z,21.26
2023-04-24T10:32:49.836Z,21.64
2023-04-24T10:35:59.410Z,21.97
2023-04-24T10:39:05.299Z,22.11
2023-04-24T10:42:10.586Z,22.20
2023-04-24T10:45:21.692Z,22.08
2023-04-24T10:48:31.586Z,21.87
2023-04-24T10:51:39.834Z,21.56
2023-04-24T10:55:03.838Z,21.41
2023-04-24T10:58:19.842Z,21.40
2023-04-24T11:01:26.939Z,21.45
2023-04-24T11:04:46.393Z,21.44
2023-04-24T11:08:30.426Z,21.24
2023-04-24T11:11:36.800Z,21.25
2023-04-24T11:14:41.548Z,21.37
2023-04-24T11:17:52.959Z,21.43
2023-04-24T11:21:00.211Z,21.48
2023-04-24T11:24:07.982Z,21.45
2023-04-24T11:27:23.644Z,21.39
2023-04-24T11:30:30.878Z,21.21
2023-04-24T11:33:36.441Z,21.01
2023-04-24T11:36:42.201Z,20.85
2023-04-24T11:39:52.643Z,20.75
2023-04-24T11:43:08.158Z,20.70
2023-04-24T11:46:15.615Z,20.58
2023-04-24T11:49:20.324Z,20.49
2023-04-24T11:52:26.493Z,20.42
2023-04-24T11:55:37.178Z,20.31
2023-04-24T11:58:42.527Z,20.26
2023-04-24T12:01:57.717Z,20.15
2023-04-24T12:05:04.360Z,20.06
2023-04-24T12:08:13.378Z,19.98
2023-04-24T12:11:20.798Z,19.97
2023-04-24T12:14:29.313Z,19.98
2023-04-24T12:17:42.113Z,19.96
2023-04-24T12:20:49.247Z,19.95
2023-04-24T12:23:56.054Z,19.98
2023-04-24T12:27:02.785Z,19.98
2023-04-24T12:30:16.750Z,20.05
2023-04-24T12:33:28.110Z,20.21
2023-04-24T12:36:37.328Z,20.38
2023-04-24T12:39:42.535Z,20.47
2023-04-24T12:42:47.924Z,20.47
2023-04-24T12:45:55.696Z,20.43
2023-04-24T12:49:02.021Z,20.29
2023-04-24T12:52:07.825Z,20.12
2023-04-24T12:55:17.846Z,19.96
2023-04-24T12:58:24.912Z,19.96
2023-04-24T13:01:37.053Z,19.97
2023-04-24T13:04:43.748Z,19.86
2023-04-24T13:07:50.248Z,19.69
2023-04-24T13:10:58.080Z,19.49
2023-04-24T13:14:03.793Z,19.19
2023-04-24T13:17:09.378Z,18.92
2023-04-24T13:20:14.508Z,18.67
2023-04-24T13:23:23.236Z,18.42
2023-04-24T13:26:29.416Z,18.20
2023-04-24T13:29:34.843Z,17.98
2023-04-24T13:32:43.301Z,17.82
2023-04-24T13:35:49.615Z,17.71
2023-04-24T13:38:56.011Z,17.75
2023-04-24T13:42:04.875Z,17.89
2023-04-24T13:45:23.764Z,18.20
2023-04-24T13:48:16.792Z,18.56
2023-04-24T13:51:23.094Z,18.88
2023-04-24T13:54:30.175Z,19.19
2023-04-24T13:57:36.603Z,19.54
2023-04-24T14:00:35.605Z,19.86
2023-04-24T14:03:28.984Z,20.30
2023-04-24T14:06:35.202Z,20.75
2023-04-24T14:09:40.838Z,21.03
2023-04-24T14:12:48.006Z,21.59
2023-04-24T14:15:54.528Z,21.90
2023-04-24T14:19:01.512Z,21.50
2023-04-24T14:22:08.142Z,20.80
2023-04-24T14:25:15.590Z,20.17
2023-04-24T14:28:23.595Z,19.67
2023-04-24T14:31:29.082Z,19.23
2023-04-24T14:34:34.761Z,18.78
2023-04-24T14:37:40.135Z,18.34
2023-04-24T14:41:05.411Z,18.03
2023-04-24T14:43:55.618Z,17.83
2023-04-24T14:47:03.579Z,17.74
2023-04-24T14:50:08.539Z,17.71
2023-04-24T14:53:15.671Z,17.68
2023-04-24T14:56:20.569Z,17.67
2023-04-24T14:59:25.710Z,17.64
2023-04-24T15:02:31.425Z,17.57
2023-04-24T15:05:36.986Z,17.50
2023-04-24T15:08:43.570Z,17.42
2023-04-24T15:11:50.217Z,17.33
2023-04-24T15:14:55.372Z,17.08
2023-04-24T15:18:00.083Z,16.91
2023-04-24T15:21:08.056Z,16.76
2023-04-24T15:24:14.723Z,16.64
2023-04-24T15:27:19.968Z,16.55
2023-04-24T15:30:25.851Z,16.48
2023-04-24T15:33:34.158Z,16.39
2023-04-24T15:36:40.978Z,16.32
2023-04-24T15:39:47.305Z,16.26
2023-04-24T15:42:53.528Z,16.19
2023-04-24T15:45:59.670Z,16.08
2023-04-24T15:49:05.462Z,15.95
2023-04-24T15:52:13.109Z,15.84
2023-04-24T15:55:19.099Z,15.64
2023-04-24T15:58:25.060Z,15.47
2023-04-24T16:01:31.523Z,15.30
2023-04-24T16:04:37.227Z,15.14
2023-04-24T16:07:43.890Z,15.06
2023-04-24T16:10:51.560Z,15.03
2023-04-24T16:13:57.308Z,14.95
2023-04-24T16:17:06.225Z,14.89
2023-04-24T16:20:12.022Z,14.84
2023-04-24T16:23:18.245Z,14.81
2023-04-24T16:26:24.240Z,14.79
2023-04-24T16:29:30.963Z,14.76
2023-04-24T16:32:37.203Z,14.71
2023-04-24T16:35:42.499Z,14.63
2023-04-24T16:38:48.116Z,14.53
2023-04-24T16:41:59.073Z,14.45
2023-04-24T16:45:03.605Z,14.37
2023-04-24T16:48:11.814Z,14.30
2023-04-24T16:51:17.530Z,14.21
2023-04-24T16:54:24.028Z,14.13
2023-04-24T16:57:30.635Z,14.04
2023-04-24T17:00:28.959Z,13.96
2023-04-24T17:03:21.457Z,13.87
2023-04-24T17:06:29.418Z,13.78
2023-04-24T17:09:36.087Z,13.71
2023-04-24T17:12:41.387Z,13.59
2023-04-24T17:15:47.482Z,13.51
2023-04-24T17:18:53.813Z,13.43
2023-04-24T17:21:59.309Z,13.36
2023-04-24T17:25:05.910Z,13.30
2023-04-24T17:28:12.019Z,13.20
2023-04-24T17:31:21.260Z,13.13
2023-04-24T17:34:27.814Z,13.05
2023-04-24T17:37:33.193Z,12.98
2023-04-24T17:40:37.804Z,12.91
2023-04-24T17:43:44.651Z,12.83
2023-04-24T17:46:50.670Z,12.75
2023-04-24T17:49:58.759Z,12.66
2023-04-24T17:53:07.468Z,12.56
2023-04-24T17:56:14.918Z,12.48
2023-04-24T17:59:21.401Z,12.39
2023-04-24T18:02:28.699Z,12.29
2023-04-24T18:05:37.337Z,12.24
2023-04-24T18:08:44.703Z,12.15
2023-04-24T18:11:50.583Z,12.01
2023-04-24T18:15:10.416Z,11.90
2023-04-24T18:18:05.879Z,11.81
2023-04-24T18:21:12.767Z,11.69
2023-04-24T18:24:18.041Z,11.58
2023-04-24T18:27:25.064Z,11.48
2023-04-24T18:30:31.435Z,11.37
2023-04-24T18:33:36.768Z,11.27
2023-04-24T18:36:42.682Z,11.19
2023-04-24T18:39:49.673Z,11.11
2023-04-24T18:42:58.127Z,11.05
2023-04-24T18:46:04.077Z,10.97
2023-04-24T18:49:10.051Z,10.90
2023-04-24T18:52:17.273Z,10.85
2023-04-24T18:55:23.437Z,10.80
2023-04-24T18:58:28.811Z,10.75
2023-04-24T19:01:34.068Z,10.69
2023-04-24T19:04:39.771Z,10.63
2023-04-24T19:07:48.750Z,10.56
2023-04-24T19:10:49.985Z,10.51
2023-04-24T19:13:56.862Z,10.44
2023-04-24T19:17:02.406Z,10.40
2023-04-24T19:20:10.180Z,10.36
2023-04-24T19:23:16.901Z,10.31
2023-04-24T19:26:24.395Z,10.30
2023-04-24T19:29:29.806Z,10.29
2023-04-24T19:32:36.027Z,10.26
2023-04-24T19:35:41.363Z,10.22
2023-04-24T19:38:49.252Z,10.17
2023-04-24T19:41:56.651Z,10.12
2023-04-24T19:45:02.488Z,10.06
2023-04-24T19:48:08.614Z,10.01
2023-04-24T19:51:15.924Z,9.97
2023-04-24T19:54:22.825Z,9.91
2023-04-24T19:57:29.158Z,9.87
2023-04-24T20:00:35.201Z,9.84
2023-04-24T20:03:44.916Z,9.81
2023-04-24T20:06:51.434Z,9.77
2023-04-24T20:10:00.848Z,9.75
2023-04-24T20:13:10.057Z,9.71
2023-04-24T20:16:16.832Z,9.66
2023-04-24T20:19:23.639Z,9.63
2023-04-24T20:22:30.899Z,9.60
2023-04-24T20:25:38.122Z,9.55
2023-04-24T20:28:43.863Z,9.51
2023-04-24T20:31:50.908Z,9.47
2023-04-24T20:34:56.155Z,9.43
2023-04-24T20:38:02.986Z,9.40
2023-04-24T20:41:08.022Z,9.38
2023-04-24T20:44:13.420Z,9.34
2023-04-24T20:47:19.130Z,9.32
2023-04-24T20:50:25.674Z,9.27
2023-04-24T20:53:31.363Z,9.24
2023-04-24T20:56:37.707Z,9.22
2023-04-24T20:59:44.325Z,9.17
2023-04-24T21:02:50.095Z,9.15
2023-04-24T21:05:58.379Z,9.11
2023-04-24T21:09:06.849Z,9.08
2023-04-24T21:12:13.016Z,9.07
2023-04-24T21:15:17.909Z,9.04
2023-04-24T21:18:24.006Z,9.01
2023-04-24T21:21:31.981Z,9.01
2023-04-24T21:24:37.061Z,9.01
2023-04-24T21:27:42.971Z,8.98
2023-04-24T21:30:49.092Z,8.97
2023-04-24T21:33:56.882Z,8.94
2023-04-24T21:37:03.313Z,8.93
2023-04-24T21:40:11.842Z,8.91
2023-04-24T21:43:21.809Z,8.88
2023-04-24T21:46:25.075Z,8.85
2023-04-24T21:49:31.171Z,8.84
2023-04-24T21:52:36.919Z,8.80
2023-04-24T21:55:43.159Z,8.75
2023-04-24T21:58:50.188Z,8.68
2023-04-24T22:01:57.019Z,8.63
2023-04-24T22:05:04.189Z,8.54
2023-04-24T22:08:10.316Z,8.47
2023-04-24T22:11:26.595Z,8.43
2023-04-24T22:14:25.740Z,8.38
2023-04-24T22:17:33.947Z,8.36
2023-04-24T22:20:41.366Z,8.33
2023-04-24T22:23:49.241Z,8.30
2023-04-24T22:26:54.729Z,8.27
2023-04-24T22:30:00.565Z,8.25
2023-04-24T22:33:07.748Z,8.23
2023-04-24T22:36:14.381Z,8.22
2023-04-24T22:39:21.850Z,8.17
2023-04-24T22:42:29.396Z,8.10
2023-04-24T22:45:34.650Z,8.01
2023-04-24T22:48:43.432Z,7.95
2023-04-24T22:51:49.209Z,7.87
2023-04-24T22:54:54.738Z,7.83
2023-04-24T22:58:04.489Z,7.79
2023-04-24T23:01:11.307Z,7.76
2023-04-24T23:04:18.112Z,7.74
2023-04-24T23:07:24.554Z,7.74
2023-04-24T23:10:32.968Z,7.71
2023-04-24T23:13:39.478Z,7.71
2023-04-24T23:16:45.814Z,7.67
2023-04-24T23:19:51.505Z,7.64
2023-04-24T23:22:57.942Z,7.63
2023-04-24T23:26:04.004Z,7.61
2023-04-24T23:29:09.891Z,7.57
2023-04-24T23:32:16.005Z,7.55
2023-04-24T23:35:22.880Z,7.55
2023-04-24T23:38:34.053Z,7.53
2023-04-24T23:41:34.895Z,7.53
2023-04-24T23:44:40.139Z,7.48
2023-04-24T23:47:46.457Z,7.46
2023-04-24T23:50:54.643Z,7.44
2023-04-24T23:54:00.608Z,7.41
2023-04-24T23:57:06.860Z,7.38
